CheckWX is a tool to help pilots better visualize weather data.  It is not intended as a substitute for an official pre-flight weather briefing.

12:49:31 UTC

KAMA TAF
Rick Husband Amarillo International Airport
Amarillo, Texas, USA
KAMA 261124Z 2612/2712 19014KT P6SM FEW250 FM261400 21011KT P6SM FEW250 FM261800 19016KT P6SM FEW250 FM270700 18009KT P6SM FEW250

Jun-26@
12:00 UTC

Jun-26 @ 12:00 UTC

Jun-26@
14:00 UTC

Jun-26 @ 14:00 UTC

KAMA 261124Z 2612/2712 19014KT P6SM FEW250
Wind
  • 190° at 14 KTS
Cloud Levels
  • Few at 25,000' AGL

Jun-26@
14:00 UTC

Jun-26 @ 14:00 UTC

Jun-26@
18:00 UTC

Jun-26 @ 18:00 UTC

FM261400 21011KT P6SM FEW250

From

From Standard forecast or significant change

Wind
  • 210° at 11 KTS
Cloud Levels
  • Few at 25,000' AGL

Jun-26@
18:00 UTC

Jun-26 @ 18:00 UTC

Jun-27@
07:00 UTC

Jun-27 @ 07:00 UTC

FM261800 19016KT P6SM FEW250

From

From Standard forecast or significant change

Wind
  • 190° at 16 KTS
Cloud Levels
  • Few at 25,000' AGL

Jun-27@
07:00 UTC

Jun-27 @ 07:00 UTC

Jun-27@
12:00 UTC

Jun-27 @ 12:00 UTC

FM270700 18009KT P6SM FEW250

From

From Standard forecast or significant change

Wind
  • 180° at 9 KTS
Cloud Levels
  • Few at 25,000' AGL